createdAt,value
2023-05-20T03:29:59.666Z,14.89
2023-05-20T03:32:27.186Z,14.88
2023-05-20T03:34:54.750Z,14.91
2023-05-20T03:37:21.796Z,14.92
2023-05-20T03:39:48.826Z,14.88
2023-05-20T03:42:16.212Z,14.86
2023-05-20T03:44:43.184Z,14.90
2023-05-20T03:47:10.175Z,14.97
2023-05-20T03:49:37.182Z,14.99
2023-05-20T03:52:04.314Z,14.99
2023-05-20T03:54:31.799Z,14.98
2023-05-20T03:57:01.345Z,14.98
2023-05-20T03:59:29.194Z,14.99
2023-05-20T04:01:59.921Z,15.01
2023-05-20T04:04:26.988Z,14.99
2023-05-20T04:06:54.673Z,14.97
2023-05-20T04:09:22.408Z,15.01
2023-05-20T04:11:49.631Z,15.08
2023-05-20T04:14:19.052Z,15.11
2023-05-20T04:16:46.623Z,15.12
2023-05-20T04:19:13.560Z,15.13
2023-05-20T04:21:44.467Z,15.18
2023-05-20T04:24:12.365Z,15.25
2023-05-20T04:26:40.183Z,15.28
2023-05-20T04:29:07.411Z,15.28
2023-05-20T04:31:35.227Z,15.26
2023-05-20T04:34:03.065Z,15.31
2023-05-20T04:36:30.877Z,15.38
2023-05-20T04:39:02.469Z,15.44
2023-05-20T04:41:29.911Z,15.44
2023-05-20T04:44:01.871Z,15.44
2023-05-20T04:46:29.084Z,15.47
2023-05-20T04:48:56.252Z,15.51
2023-05-20T04:51:23.182Z,15.51
2023-05-20T04:53:52.225Z,15.50
2023-05-20T04:56:19.092Z,15.48
2023-05-20T04:58:46.865Z,15.53
2023-05-20T05:01:13.954Z,15.60
2023-05-20T05:03:41.957Z,15.64
2023-05-20T05:06:09.414Z,15.67
2023-05-20T05:08:36.533Z,15.69
2023-05-20T05:11:06.580Z,15.73
2023-05-20T05:13:33.717Z,15.82
2023-05-20T05:16:01.503Z,15.85
2023-05-20T05:18:29.451Z,15.87
2023-05-20T05:21:03.498Z,15.90
2023-05-20T05:23:31.217Z,15.97
2023-05-20T05:25:59.301Z,16.05
2023-05-20T05:28:26.268Z,16.10
2023-05-20T05:30:55.462Z,16.10
2023-05-20T05:33:22.587Z,16.09
2023-05-20T05:35:50.043Z,16.13
2023-05-20T05:38:17.295Z,16.23
2023-05-20T05:40:44.511Z,16.31
2023-05-20T05:43:11.513Z,16.30
2023-05-20T05:45:39.274Z,16.29
2023-05-20T05:48:06.277Z,16.35
2023-05-20T05:50:33.264Z,16.43
2023-05-20T05:53:00.327Z,16.45
2023-05-20T05:55:27.648Z,16.43
2023-05-20T05:57:56.403Z,16.42
2023-05-20T06:00:26.202Z,16.45
2023-05-20T06:02:54.807Z,16.52
2023-05-20T06:05:29.790Z,16.58
2023-05-20T06:07:57.800Z,16.59
2023-05-20T06:10:25.954Z,16.58
2023-05-20T06:12:53.043Z,16.66
2023-05-20T06:15:23.189Z,16.76
2023-05-20T06:17:50.955Z,16.82
2023-05-20T06:20:18.164Z,16.87
2023-05-20T06:22:45.220Z,16.91
2023-05-20T06:25:14.821Z,17.02
2023-05-20T06:27:42.262Z,17.15
2023-05-20T06:30:12.537Z,17.24
2023-05-20T06:32:39.701Z,17.27
2023-05-20T06:35:09.546Z,17.26
2023-05-20T06:37:37.116Z,17.22
2023-05-20T06:40:05.138Z,17.25
2023-05-20T06:42:32.868Z,17.29
2023-05-20T06:45:04.633Z,17.29
2023-05-20T06:47:38.402Z,17.28
2023-05-20T06:50:06.076Z,17.30
2023-05-20T06:52:33.131Z,17.33
2023-05-20T06:55:00.308Z,17.42
2023-05-20T06:57:27.246Z,17.51
2023-05-20T06:59:54.216Z,17.58
2023-05-20T07:02:21.942Z,17.63
2023-05-20T07:04:49.462Z,17.71
2023-05-20T07:07:17.420Z,17.79
2023-05-20T07:09:46.772Z,17.93
2023-05-20T07:12:13.848Z,18.08
2023-05-20T07:14:40.985Z,18.16
2023-05-20T07:17:07.948Z,18.20
2023-05-20T07:19:34.932Z,18.22
2023-05-20T07:22:02.395Z,18.22
2023-05-20T07:24:43.243Z,18.23
2023-05-20T07:27:10.520Z,18.27
2023-05-20T07:29:38.056Z,18.24
2023-05-20T07:32:08.434Z,18.18
2023-05-20T07:34:35.664Z,18.12
2023-05-20T07:37:02.579Z,18.09
2023-05-20T07:39:29.590Z,18.13
2023-05-20T07:41:56.643Z,18.19
2023-05-20T07:44:24.396Z,18.23
2023-05-20T07:46:52.724Z,18.20
2023-05-20T07:49:20.632Z,18.14
2023-05-20T07:51:48.084Z,18.10
2023-05-20T07:54:16.375Z,18.14
2023-05-20T07:56:46.380Z,18.19
2023-05-20T07:59:14.050Z,18.18
2023-05-20T08:01:45.841Z,18.11
2023-05-20T08:04:14.434Z,18.08
2023-05-20T08:06:42.246Z,18.06
2023-05-20T08:09:11.913Z,18.08
2023-05-20T08:11:41.267Z,18.13
2023-05-20T08:14:08.368Z,18.17
2023-05-20T08:16:39.136Z,18.20
2023-05-20T08:19:06.365Z,18.22
2023-05-20T08:21:33.463Z,18.25
2023-05-20T08:24:00.935Z,18.31
2023-05-20T08:26:28.177Z,18.40
2023-05-20T08:28:55.248Z,18.43
2023-05-20T08:31:22.793Z,18.41
2023-05-20T08:33:50.942Z,18.38
2023-05-20T08:36:19.625Z,18.35
2023-05-20T08:38:46.686Z,18.33
2023-05-20T08:41:13.654Z,18.35
2023-05-20T08:43:41.820Z,18.39
2023-05-20T08:46:09.138Z,18.41
2023-05-20T08:48:36.381Z,18.43
2023-05-20T08:51:03.701Z,18.45
2023-05-20T08:53:30.769Z,18.44
2023-05-20T08:56:03.363Z,18.41
2023-05-20T08:58:31.180Z,18.43
2023-05-20T09:00:59.106Z,18.48
2023-05-20T09:03:26.183Z,18.49
2023-05-20T09:05:53.913Z,18.50
2023-05-20T09:08:26.309Z,18.48
2023-05-20T09:10:54.541Z,18.47
2023-05-20T09:13:23.617Z,18.53
2023-05-20T09:15:51.159Z,18.65
2023-05-20T09:18:18.842Z,18.73
2023-05-20T09:20:47.770Z,18.79
2023-05-20T09:23:14.744Z,18.79
2023-05-20T09:25:41.748Z,18.80
2023-05-20T09:28:08.982Z,18.81
2023-05-20T09:30:36.045Z,18.88
2023-05-20T09:33:05.236Z,18.98
2023-05-20T09:35:39.344Z,19.05
2023-05-20T09:38:08.208Z,19.03
2023-05-20T09:40:38.091Z,18.98
2023-05-20T09:43:08.602Z,18.96
2023-05-20T09:45:35.897Z,18.95
2023-05-20T09:48:03.405Z,18.96
2023-05-20T09:50:30.538Z,19.00
2023-05-20T09:52:58.146Z,19.08
2023-05-20T09:55:25.283Z,19.13
2023-05-20T09:59:08.324Z,19.14
2023-05-20T10:01:35.327Z,19.13
2023-05-20T10:04:02.512Z,19.15
2023-05-20T10:06:35.555Z,19.19
2023-05-20T10:09:10.738Z,19.26
2023-05-20T10:11:43.858Z,19.33
2023-05-20T10:14:37.014Z,19.37
2023-05-20T10:17:18.881Z,19.43
2023-05-20T10:19:45.816Z,19.49
2023-05-20T10:22:13.982Z,19.56
2023-05-20T10:24:42.436Z,19.61
2023-05-20T10:27:17.399Z,19.67
2023-05-20T10:29:57.443Z,19.72
2023-05-20T10:32:29.059Z,19.83
2023-05-20T10:35:05.324Z,19.96
2023-05-20T10:37:34.202Z,20.11
2023-05-20T10:40:20.427Z,20.28
2023-05-20T10:42:48.253Z,20.44
2023-05-20T10:45:29.206Z,20.59
2023-05-20T10:47:57.587Z,20.78
2023-05-20T10:50:36.683Z,20.96
2023-05-20T10:53:13.350Z,21.10
2023-05-20T10:55:52.343Z,21.17
2023-05-20T10:58:19.962Z,21.14
2023-05-20T11:00:50.342Z,21.18
2023-05-20T11:03:18.704Z,21.26
2023-05-20T11:05:47.470Z,21.38
2023-05-20T11:10:47.571Z,21.65
2023-05-20T11:13:17.640Z,21.71
2023-05-20T11:15:45.044Z,21.72
2023-05-20T11:18:13.393Z,21.75
2023-05-20T11:20:40.556Z,21.78
2023-05-20T11:23:12.463Z,21.82
2023-05-20T11:25:39.468Z,21.86
2023-05-20T11:28:14.517Z,21.83
2023-05-20T11:30:44.732Z,21.81
2023-05-20T11:33:14.860Z,21.89
2023-05-20T11:35:52.258Z,22.01
2023-05-20T11:38:20.271Z,22.12
2023-05-20T11:40:52.450Z,22.17
2023-05-20T11:43:19.839Z,22.20
2023-05-20T11:45:59.420Z,22.20
2023-05-20T11:48:26.864Z,22.18
2023-05-20T11:50:56.499Z,22.18
2023-05-20T11:53:24.400Z,22.19
2023-05-20T11:55:57.244Z,22.22
2023-05-20T11:58:37.021Z,22.24
2023-05-20T12:01:14.095Z,22.22
2023-05-20T12:03:50.702Z,22.22
2023-05-20T12:06:17.962Z,22.22
2023-05-20T12:08:47.834Z,22.19
2023-05-20T12:11:16.436Z,22.14
2023-05-20T12:14:04.155Z,22.11
2023-05-20T12:16:34.012Z,22.04
2023-05-20T12:19:01.226Z,21.99
2023-05-20T12:21:31.635Z,21.93
2023-05-20T12:24:07.171Z,21.88
2023-05-20T12:26:35.626Z,21.85
2023-05-20T12:29:03.332Z,21.84
2023-05-20T12:31:33.128Z,21.90
2023-05-20T12:34:01.814Z,21.99
2023-05-20T12:36:35.524Z,22.07
2023-05-20T12:39:06.899Z,22.15
2023-05-20T12:41:33.955Z,22.23
2023-05-20T12:44:01.227Z,22.34
2023-05-20T12:46:30.935Z,22.44
2023-05-20T12:48:57.904Z,22.52
2023-05-20T12:51:25.162Z,22.54
2023-05-20T12:53:52.934Z,22.50
2023-05-20T12:56:20.135Z,22.42
2023-05-20T12:58:47.074Z,22.39
2023-05-20T13:01:15.269Z,22.41
2023-05-20T13:03:42.281Z,22.49
2023-05-20T13:06:10.570Z,22.62
2023-05-20T13:08:37.645Z,22.73
2023-05-20T13:11:06.317Z,22.79
2023-05-20T13:13:33.307Z,22.74
2023-05-20T13:16:00.727Z,22.70
2023-05-20T13:18:28.756Z,22.73
2023-05-20T13:20:55.645Z,22.82
2023-05-20T13:23:29.646Z,22.84
2023-05-20T13:25:56.802Z,22.77
2023-05-20T13:28:23.867Z,22.66
2023-05-20T13:30:51.114Z,22.57
2023-05-20T13:33:18.221Z,22.46
2023-05-20T13:35:45.416Z,22.38
2023-05-20T13:38:12.441Z,22.35
2023-05-20T13:40:39.423Z,22.33
2023-05-20T13:43:09.042Z,22.31
2023-05-20T13:45:36.696Z,22.31
2023-05-20T13:48:04.074Z,22.35
2023-05-20T13:50:36.908Z,22.39
2023-05-20T13:53:03.797Z,22.41
2023-05-20T13:55:31.642Z,22.41
2023-05-20T14:01:38.994Z,22.55
2023-05-20T14:04:36.596Z,22.63
2023-05-20T14:14:19.226Z,22.65
2023-05-20T14:16:48.522Z,22.62
2023-05-20T14:19:16.266Z,22.59
2023-05-20T14:21:43.253Z,22.53
2023-05-20T14:24:10.259Z,22.46
2023-05-20T14:26:37.970Z,22.44
2023-05-20T14:29:04.947Z,22.46
2023-05-20T14:31:31.977Z,22.49
2023-05-20T14:34:01.552Z,22.54
2023-05-20T14:36:31.374Z,22.59
2023-05-20T14:38:58.871Z,22.62
2023-05-20T14:41:26.125Z,22.62
2023-05-20T14:43:53.265Z,22.60
2023-05-20T14:46:21.370Z,22.58
2023-05-20T14:48:49.091Z,22.58
2023-05-20T14:51:16.640Z,22.59
2023-05-20T14:53:43.573Z,22.56
2023-05-20T14:56:10.553Z,22.52
2023-05-20T14:58:37.763Z,22.52
2023-05-20T15:01:04.886Z,22.54
2023-05-20T15:03:32.316Z,22.57
2023-05-20T15:05:59.286Z,22.60
2023-05-20T15:08:30.679Z,22.63
2023-05-20T15:11:01.656Z,22.64
2023-05-20T15:13:28.598Z,22.64
2023-05-20T15:15:55.724Z,22.63
2023-05-20T15:18:22.673Z,22.63
2023-05-20T15:20:52.657Z,22.64
2023-05-20T15:29:48.684Z,22.73
2023-05-20T15:32:17.728Z,22.71
2023-05-20T15:34:46.661Z,22.69
2023-05-20T15:37:13.623Z,22.66
2023-05-20T15:39:40.524Z,22.61
2023-05-20T15:42:12.978Z,22.56
2023-05-20T15:47:31.199Z,22.46
2023-05-20T15:50:00.310Z,22.38
2023-05-20T15:52:27.200Z,22.33
2023-05-20T15:54:54.243Z,22.27
2023-05-20T15:57:22.944Z,22.22
2023-05-20T15:59:52.327Z,22.17
2023-05-20T16:02:19.651Z,22.14
2023-05-20T16:04:49.518Z,22.10
2023-05-20T16:07:17.083Z,22.06
2023-05-20T16:09:44.139Z,22.03
2023-05-20T16:12:13.529Z,21.99
2023-05-20T16:14:45.438Z,21.96
2023-05-20T16:17:12.546Z,21.94
2023-05-20T16:19:39.533Z,21.91
2023-05-20T16:22:09.026Z,21.88
2023-05-20T16:24:35.962Z,21.86
2023-05-20T16:27:03.562Z,21.85
2023-05-20T16:29:30.600Z,21.84
2023-05-20T16:32:15.981Z,21.84
2023-05-20T16:34:43.018Z,21.81
2023-05-20T16:37:10.502Z,21.79
2023-05-20T16:39:38.038Z,21.78
2023-05-20T16:42:05.196Z,21.76
2023-05-20T16:44:32.149Z,21.74
2023-05-20T16:46:59.263Z,21.71
2023-05-20T16:49:26.339Z,21.68
2023-05-20T16:51:53.365Z,21.66
2023-05-20T16:54:22.643Z,21.62
2023-05-20T16:56:50.193Z,21.57
2023-05-20T16:59:18.839Z,21.53
2023-05-20T17:01:46.540Z,21.47
2023-05-20T17:04:13.652Z,21.41
2023-05-20T17:06:40.630Z,21.35
2023-05-20T17:09:09.936Z,21.29
2023-05-20T17:11:36.957Z,21.23
2023-05-20T17:14:05.354Z,21.18
2023-05-20T17:16:32.685Z,21.12
2023-05-20T17:18:59.799Z,21.06
2023-05-20T17:21:27.003Z,21.02
2023-05-20T17:23:53.904Z,20.97
2023-05-20T17:26:20.804Z,20.93
2023-05-20T17:28:47.799Z,20.87
2023-05-20T17:31:15.275Z,20.83
2023-05-20T17:33:42.298Z,20.80
2023-05-20T17:36:09.624Z,20.75
2023-05-20T17:38:36.611Z,20.71
2023-05-20T17:41:03.560Z,20.66
2023-05-20T17:43:30.606Z,20.62
2023-05-20T17:45:57.708Z,20.58
2023-05-20T17:48:24.645Z,20.54
2023-05-20T17:50:53.985Z,20.51
2023-05-20T17:53:22.100Z,20.47
2023-05-20T17:55:49.578Z,20.43
2023-05-20T17:58:17.035Z,20.41
2023-05-20T18:00:44.356Z,20.38
2023-05-20T18:03:11.720Z,20.36
2023-05-20T18:05:38.803Z,20.34
2023-05-20T18:08:06.105Z,20.31
2023-05-20T18:10:33.216Z,20.28
2023-05-20T18:13:01.314Z,20.25
2023-05-20T18:15:28.494Z,20.22
2023-05-20T18:17:55.865Z,20.18
2023-05-20T18:20:22.884Z,20.14
2023-05-20T18:22:52.439Z,20.10
2023-05-20T18:25:19.429Z,20.06
2023-05-20T18:27:46.576Z,20.03
2023-05-20T18:30:24.243Z,19.98
2023-05-20T18:32:51.872Z,19.92
2023-05-20T18:35:19.060Z,19.86
2023-05-20T18:37:46.953Z,19.79
2023-05-20T18:40:14.069Z,19.72
2023-05-20T18:42:41.509Z,19.65
2023-05-20T18:45:09.227Z,19.57
2023-05-20T18:47:36.382Z,19.48
2023-05-20T18:50:05.014Z,19.40
2023-05-20T18:52:31.975Z,19.33
2023-05-20T18:54:59.360Z,19.26
2023-05-20T18:57:26.607Z,19.19
2023-05-20T18:59:54.149Z,19.11
2023-05-20T19:02:23.879Z,19.04
2023-05-20T19:11:04.256Z,18.81
2023-05-20T19:13:31.602Z,18.73
2023-05-20T19:16:04.587Z,18.68
2023-05-20T19:18:32.529Z,18.62
2023-05-20T19:20:59.500Z,18.55
2023-05-20T19:23:26.474Z,18.49
2023-05-20T19:25:53.888Z,18.45
2023-05-20T19:28:25.411Z,18.42
2023-05-20T19:30:53.442Z,18.40
2023-05-20T19:33:23.294Z,18.37
2023-05-20T19:35:52.231Z,18.36
2023-05-20T19:38:19.955Z,18.33
2023-05-20T19:40:48.650Z,18.31
2023-05-20T19:43:15.733Z,18.28
2023-05-20T19:45:43.329Z,18.27
2023-05-20T19:48:10.433Z,18.25
2023-05-20T19:50:38.042Z,18.25
2023-05-20T19:53:09.674Z,18.25
2023-05-20T19:55:37.535Z,18.25
2023-05-20T19:58:05.215Z,18.23
2023-05-20T20:00:32.142Z,18.23
2023-05-20T20:02:59.458Z,18.21
2023-05-20T20:05:27.057Z,18.20
2023-05-20T20:07:56.300Z,18.25
2023-05-20T20:10:23.664Z,18.32
2023-05-20T20:12:53.845Z,18.37
2023-05-20T20:15:24.276Z,18.38
2023-05-20T20:17:53.434Z,18.39
2023-05-20T20:20:24.871Z,18.40
2023-05-20T20:22:52.965Z,18.39
2023-05-20T20:25:20.654Z,18.37
2023-05-20T20:27:57.585Z,18.35
2023-05-20T20:30:26.828Z,18.31
2023-05-20T20:33:01.593Z,18.27
2023-05-20T20:35:31.036Z,18.23
2023-05-20T20:37:58.003Z,18.19
2023-05-20T20:40:28.468Z,18.14
2023-05-20T20:43:00.964Z,18.10
2023-05-20T20:45:29.614Z,18.12
2023-05-20T20:47:58.145Z,18.16
2023-05-20T20:50:26.068Z,18.18
2023-05-20T20:52:52.989Z,18.17
2023-05-20T20:55:21.344Z,18.13
2023-05-20T20:57:48.254Z,18.09
2023-05-20T21:00:19.190Z,18.06
2023-05-20T21:02:46.207Z,18.01
2023-05-20T21:05:16.841Z,17.97
2023-05-20T21:07:46.210Z,17.91
2023-05-20T21:10:13.303Z,17.85
2023-05-20T21:12:40.932Z,17.84
2023-05-20T21:15:08.550Z,17.88
2023-05-20T21:17:35.991Z,17.88
2023-05-20T21:20:07.907Z,17.86
2023-05-20T21:22:35.094Z,17.81
2023-05-20T21:25:02.205Z,17.78
2023-05-20T21:27:29.404Z,17.74
2023-05-20T21:29:58.701Z,17.69
2023-05-20T21:32:30.848Z,17.64
2023-05-20T21:34:58.426Z,17.58
2023-05-20T21:37:26.569Z,17.51
2023-05-20T21:39:59.594Z,17.50
2023-05-20T21:42:26.572Z,17.52
2023-05-20T21:44:56.016Z,17.53
2023-05-20T21:47:22.914Z,17.50
2023-05-20T21:49:49.865Z,17.48
2023-05-20T21:52:16.738Z,17.46
2023-05-20T21:54:43.685Z,17.43
2023-05-20T21:57:10.616Z,17.39
2023-05-20T21:59:37.638Z,17.35
2023-05-20T22:02:04.839Z,17.32
2023-05-20T22:04:33.499Z,17.35
2023-05-20T22:07:02.060Z,17.43
2023-05-20T22:09:31.419Z,17.48
2023-05-20T22:11:59.926Z,17.48
2023-05-20T22:14:27.376Z,17.47
2023-05-20T22:16:54.560Z,17.42
2023-05-20T22:19:21.883Z,17.39
2023-05-20T22:21:50.555Z,17.36
2023-05-20T22:24:18.372Z,17.33
2023-05-20T22:26:46.442Z,17.31
2023-05-20T22:29:13.352Z,17.33
2023-05-20T22:31:41.172Z,17.38
2023-05-20T22:34:15.796Z,17.38
2023-05-20T22:36:45.483Z,17.37
2023-05-20T22:39:13.596Z,17.34
2023-05-20T22:41:42.049Z,17.33
2023-05-20T22:44:09.215Z,17.32
2023-05-20T22:46:36.165Z,17.30
2023-05-20T22:49:03.376Z,17.26
2023-05-20T22:51:34.583Z,17.21
2023-05-20T22:54:01.536Z,17.17
2023-05-20T22:56:29.821Z,17.19
2023-05-20T22:58:56.749Z,17.23
2023-05-20T23:01:24.231Z,17.25
2023-05-20T23:03:54.534Z,17.24
2023-05-20T23:06:22.693Z,17.20
2023-05-20T23:08:52.634Z,17.17
2023-05-20T23:11:20.652Z,17.14
2023-05-20T23:13:47.755Z,17.09
2023-05-20T23:16:14.774Z,17.03
2023-05-20T23:18:41.791Z,16.96
2023-05-20T23:21:08.842Z,16.91
2023-05-20T23:23:35.763Z,16.86
2023-05-20T23:26:03.206Z,16.86
2023-05-20T23:28:30.312Z,16.90
2023-05-20T23:30:57.365Z,16.89
2023-05-20T23:33:27.292Z,16.85
2023-05-20T23:35:54.384Z,16.82
2023-05-20T23:38:26.218Z,16.76
2023-05-20T23:40:53.227Z,16.71
2023-05-20T23:43:20.331Z,16.67
2023-05-20T23:45:47.468Z,16.62
2023-05-20T23:48:14.318Z,16.59
2023-05-20T23:50:41.343Z,16.61
2023-05-20T23:53:08.422Z,16.65
2023-05-20T23:55:39.190Z,16.65
2023-05-20T23:58:07.763Z,16.63
